createdAt,value
2018-01-22T00:01:37.909Z,0.70
2018-01-22T00:04:07.263Z,0.70
2018-01-22T00:06:37.170Z,0.70
2018-01-22T00:09:11.710Z,0.70
2018-01-22T00:11:42.674Z,0.70
2018-01-22T00:14:12.170Z,0.70
2018-01-22T00:16:42.020Z,0.70
2018-01-22T00:19:11.846Z,0.70
2018-01-22T00:24:19.036Z,0.70
2018-01-22T00:26:49.037Z,0.70
2018-01-22T00:29:21.711Z,0.70
2018-01-22T00:31:53.600Z,0.70
2018-01-22T00:34:26.104Z,0.70
2018-01-22T00:36:57.688Z,0.70
2018-01-22T00:39:27.146Z,0.70
2018-01-22T00:42:02.226Z,0.60
2018-01-22T00:44:44.179Z,0.60
2018-01-22T00:47:13.915Z,0.60
2018-01-22T00:49:43.173Z,0.70
2018-01-22T00:52:11.539Z,0.70
2018-01-22T00:54:41.696Z,0.70
2018-01-22T00:57:13.220Z,0.70
2018-01-22T00:59:42.057Z,0.70
2018-01-22T01:02:17.985Z,0.70
2018-01-22T01:04:49.379Z,0.80
2018-01-22T01:07:20.787Z,0.80
2018-01-22T01:09:51.656Z,0.80
2018-01-22T01:12:22.954Z,0.80
2018-01-22T01:14:53.681Z,0.80
2018-01-22T01:17:22.950Z,0.80
2018-01-22T01:19:57.286Z,0.80
2018-01-22T01:22:29.207Z,0.80
2018-01-22T01:24:59.827Z,0.90
2018-01-22T01:27:32.681Z,0.90
2018-01-22T01:30:03.746Z,0.90
2018-01-22T01:32:34.439Z,0.90
2018-01-22T01:35:06.416Z,0.90
2018-01-22T01:37:45.012Z,0.90
2018-01-22T01:40:13.831Z,0.90
2018-01-22T01:42:43.489Z,1.00
2018-01-22T01:45:19.609Z,1.00
2018-01-22T01:47:50.713Z,1.10
2018-01-22T01:50:20.621Z,1.10
2018-01-22T01:52:51.499Z,1.10
2018-01-22T01:55:24.326Z,1.00
2018-01-22T01:57:57.775Z,1.10
2018-01-22T02:00:29.588Z,1.10
2018-01-22T02:02:59.282Z,1.10
2018-01-22T02:05:31.784Z,1.10
2018-01-22T02:08:08.636Z,1.10
2018-01-22T02:10:38.056Z,1.10
2018-01-22T02:13:06.487Z,1.10
2018-01-22T02:15:40.978Z,1.10
2018-01-22T02:18:09.393Z,1.20
2018-01-22T02:20:38.843Z,1.20
2018-01-22T02:23:12.340Z,1.20
2018-01-22T02:25:47.812Z,1.20
2018-01-22T02:28:22.587Z,1.20
2018-01-22T02:30:52.868Z,1.30
2018-01-22T02:33:23.866Z,1.30
2018-01-22T02:35:52.544Z,1.30
2018-01-22T02:38:25.514Z,1.30
2018-01-22T02:40:58.774Z,1.30
2018-01-22T02:43:30.697Z,1.40
2018-01-22T02:46:00.984Z,1.30
2018-01-22T02:48:32.807Z,1.40
2018-01-22T02:51:00.755Z,1.40
2018-01-22T02:53:31.634Z,1.40
2018-01-22T02:56:09.422Z,1.40
2018-01-22T02:58:45.551Z,1.40
2018-01-22T03:01:19.768Z,1.40
2018-01-22T03:03:56.897Z,1.40
2018-01-22T03:06:26.766Z,1.40
2018-01-22T03:09:04.553Z,1.50
2018-01-22T03:11:35.367Z,1.40
2018-01-22T03:14:04.744Z,1.50
2018-01-22T03:16:38.474Z,1.50
2018-01-22T03:19:09.464Z,1.50
2018-01-22T03:21:42.632Z,1.60
2018-01-22T03:24:16.983Z,1.60
2018-01-22T03:26:47.275Z,1.60
2018-01-22T03:29:27.281Z,1.60
2018-01-22T03:31:57.456Z,1.60
2018-01-22T03:34:27.881Z,1.60
2018-01-22T03:37:00.407Z,1.60
2018-01-22T03:39:28.493Z,1.60
2018-01-22T03:42:01.479Z,1.60
2018-01-22T03:44:33.040Z,1.60
2018-01-22T03:47:04.253Z,1.70
2018-01-22T03:49:39.290Z,1.70
2018-01-22T03:52:13.186Z,1.70
2018-01-22T03:54:42.469Z,1.70
2018-01-22T03:57:17.044Z,1.70
2018-01-22T03:59:47.553Z,1.80
2018-01-22T04:02:21.069Z,1.80
2018-01-22T04:04:54.575Z,1.80
2018-01-22T04:07:27.924Z,1.80
2018-01-22T04:10:05.097Z,1.80
2018-01-22T04:12:39.746Z,1.90
2018-01-22T04:15:10.083Z,1.80
2018-01-22T04:17:46.762Z,1.90
2018-01-22T04:20:19.913Z,1.90
2018-01-22T04:22:50.822Z,1.90
2018-01-22T04:25:24.887Z,2.00
2018-01-22T04:27:58.852Z,2.00
2018-01-22T04:30:28.177Z,2.00
2018-01-22T04:32:58.033Z,1.90
2018-01-22T04:35:29.597Z,1.90
2018-01-22T04:38:00.107Z,2.00
2018-01-22T04:40:30.594Z,2.00
2018-01-22T04:43:01.258Z,2.00
2018-01-22T04:45:31.428Z,2.00
2018-01-22T04:48:06.427Z,2.20
2018-01-22T04:50:35.129Z,2.20
2018-01-22T04:53:08.555Z,2.30
2018-01-22T04:55:40.002Z,2.50
2018-01-22T04:58:09.271Z,2.50
2018-01-22T05:00:46.005Z,2.50
2018-01-22T05:03:18.258Z,2.60
2018-01-22T05:05:49.249Z,2.60
2018-01-22T05:08:26.188Z,2.60
2018-01-22T05:10:54.403Z,2.60
2018-01-22T05:13:24.185Z,2.70
2018-01-22T05:15:54.630Z,2.70
2018-01-22T05:18:25.276Z,2.80
2018-01-22T05:20:55.982Z,2.90
2018-01-22T05:23:34.015Z,2.90
2018-01-22T05:26:05.208Z,2.90
2018-01-22T05:28:39.034Z,2.90
2018-01-22T05:31:08.430Z,2.90
2018-01-22T05:33:38.793Z,2.90
2018-01-22T05:36:09.040Z,3.00
2018-01-22T05:38:39.424Z,3.10
2018-01-22T05:41:08.873Z,3.00
2018-01-22T05:43:38.884Z,3.20
2018-01-22T05:46:17.395Z,3.10
2018-01-22T05:48:50.314Z,3.30
2018-01-22T05:51:19.013Z,3.30
2018-01-22T05:53:47.886Z,3.30
2018-01-22T05:56:19.694Z,3.30
2018-01-22T05:58:49.609Z,3.30
2018-01-22T06:01:18.544Z,3.30
2018-01-22T06:03:48.910Z,3.30
2018-01-22T06:06:17.500Z,3.30
2018-01-22T06:08:46.650Z,3.40
2018-01-22T06:11:16.160Z,3.40
2018-01-22T06:13:44.682Z,3.40
2018-01-22T06:16:14.831Z,3.40
2018-01-22T06:18:43.981Z,3.40
2018-01-22T06:21:13.706Z,3.40
2018-01-22T06:23:41.928Z,3.50
2018-01-22T06:26:10.908Z,3.50
2018-01-22T06:28:39.589Z,3.50
2018-01-22T06:31:08.050Z,3.50
2018-01-22T06:33:36.072Z,3.50
2018-01-22T06:36:04.215Z,3.60
2018-01-22T06:38:34.260Z,3.60
2018-01-22T06:41:02.572Z,3.60
2018-01-22T06:43:30.746Z,3.60
2018-01-22T06:46:00.189Z,3.60
2018-01-22T06:48:29.008Z,3.60
2018-01-22T06:50:57.341Z,3.60
2018-01-22T06:53:25.488Z,3.70
2018-01-22T06:55:54.698Z,3.70
2018-01-22T06:58:22.961Z,3.70
2018-01-22T07:00:51.544Z,3.70
2018-01-22T07:03:24.473Z,3.80
2018-01-22T07:05:53.441Z,3.80
2018-01-22T07:08:22.274Z,3.80
2018-01-22T07:10:56.938Z,3.80
2018-01-22T07:13:26.146Z,3.90
2018-01-22T07:15:54.348Z,3.90
2018-01-22T07:18:23.496Z,4.00
2018-01-22T07:20:51.490Z,4.00
2018-01-22T07:23:19.480Z,4.00
2018-01-22T07:25:48.186Z,4.00
2018-01-22T07:28:18.808Z,4.00
2018-01-22T07:30:47.599Z,3.80
2018-01-22T07:33:17.660Z,4.10
2018-01-22T07:35:45.750Z,4.10
2018-01-22T07:38:13.929Z,4.20
2018-01-22T07:40:42.005Z,4.20
2018-01-22T07:43:10.928Z,4.20
2018-01-22T07:45:40.784Z,4.10
2018-01-22T07:48:08.755Z,4.20
2018-01-22T07:50:36.642Z,4.10
2018-01-22T07:53:04.486Z,4.10
2018-01-22T07:55:33.350Z,4.00
2018-01-22T07:58:01.786Z,4.10
2018-01-22T08:00:29.726Z,4.10
2018-01-22T08:02:57.642Z,4.10
2018-01-22T08:05:26.519Z,4.40
2018-01-22T08:07:55.276Z,4.50
2018-01-22T08:10:24.183Z,4.50
2018-01-22T08:12:51.981Z,4.50
2018-01-22T08:15:23.523Z,4.40
2018-01-22T08:17:52.699Z,4.30
2018-01-22T08:20:21.357Z,4.30
2018-01-22T08:22:53.478Z,4.30
2018-01-22T08:25:22.345Z,4.20
2018-01-22T08:27:50.302Z,4.20
2018-01-22T08:30:18.253Z,4.20
2018-01-22T08:32:46.364Z,4.20
2018-01-22T08:35:16.432Z,4.30
2018-01-22T08:37:44.309Z,4.50
2018-01-22T08:40:12.124Z,4.40
2018-01-22T08:42:40.356Z,4.30
2018-01-22T08:45:08.339Z,4.30
2018-01-22T08:47:36.412Z,4.30
2018-01-22T08:50:04.376Z,4.40
2018-01-22T08:52:32.262Z,4.50
2018-01-22T08:55:00.206Z,4.50
2018-01-22T08:57:28.062Z,4.50
2018-01-22T08:59:55.942Z,4.50
2018-01-22T09:02:23.835Z,4.50
2018-01-22T09:04:52.390Z,4.50
2018-01-22T09:07:20.180Z,4.50
2018-01-22T09:09:48.005Z,4.60
2018-01-22T09:12:15.798Z,4.70
2018-01-22T09:14:43.568Z,4.80
2018-01-22T09:17:11.396Z,4.70
2018-01-22T09:19:39.292Z,4.70
2018-01-22T09:22:07.058Z,4.80
2018-01-22T09:24:35.034Z,4.80
2018-01-22T09:27:03.174Z,4.80
2018-01-22T09:29:31.143Z,4.80
2018-01-22T09:31:58.934Z,4.80
2018-01-22T09:34:26.693Z,4.80
2018-01-22T09:36:54.560Z,4.70
2018-01-22T09:39:22.608Z,4.70
2018-01-22T09:41:50.464Z,4.70
2018-01-22T09:44:18.443Z,4.70
2018-01-22T09:46:46.334Z,4.80
2018-01-22T09:49:15.139Z,4.80
2018-01-22T09:51:43.819Z,4.90
2018-01-22T09:54:11.690Z,4.90
2018-01-22T09:56:39.635Z,5.00
2018-01-22T09:59:07.412Z,5.00
2018-01-22T10:01:35.570Z,5.10
2018-01-22T10:04:03.421Z,5.10
2018-01-22T10:06:34.449Z,5.10
2018-01-22T10:09:02.469Z,5.20
2018-01-22T10:11:33.444Z,5.30
2018-01-22T10:14:02.692Z,5.40
2018-01-22T10:16:35.698Z,5.50
2018-01-22T10:19:14.556Z,5.50
2018-01-22T10:21:49.806Z,5.60
2018-01-22T10:24:25.131Z,5.60
2018-01-22T10:26:53.057Z,5.50
2018-01-22T10:29:22.432Z,5.50
2018-01-22T10:31:56.774Z,5.40
2018-01-22T10:34:24.670Z,5.30
2018-01-22T10:36:52.688Z,5.20
2018-01-22T10:39:27.685Z,5.00
2018-01-22T10:41:55.544Z,4.90
2018-01-22T10:44:29.208Z,4.90
2018-01-22T10:47:00.568Z,4.90
2018-01-22T10:49:29.634Z,4.90
2018-01-22T10:52:03.162Z,4.90
2018-01-22T10:54:31.320Z,4.90
2018-01-22T10:56:59.273Z,4.80
2018-01-22T10:59:27.345Z,4.80
2018-01-22T11:01:59.114Z,4.70
2018-01-22T11:04:27.304Z,4.70
2018-01-22T11:06:55.344Z,4.90
2018-01-22T11:09:23.214Z,5.00
2018-01-22T11:11:53.834Z,5.10
2018-01-22T11:14:21.814Z,5.20
2018-01-22T11:16:54.017Z,5.30
2018-01-22T11:19:23.013Z,5.50
2018-01-22T11:21:51.154Z,5.50
2018-01-22T11:24:20.194Z,5.40
2018-01-22T11:26:51.214Z,5.40
2018-01-22T11:29:23.917Z,5.40
2018-01-22T11:31:52.648Z,5.30
2018-01-22T11:34:20.452Z,5.30
2018-01-22T11:36:54.883Z,5.20
2018-01-22T11:39:23.905Z,5.20
2018-01-22T11:41:56.014Z,5.20
2018-01-22T11:44:25.063Z,5.20
2018-01-22T11:46:55.202Z,5.20
2018-01-22T11:49:25.555Z,5.20
2018-01-22T11:51:56.553Z,5.20
2018-01-22T11:54:31.969Z,5.20
2018-01-22T11:57:00.708Z,5.20
2018-01-22T11:59:30.358Z,5.20
2018-01-22T12:02:08.417Z,5.40
2018-01-22T12:04:41.369Z,5.40
2018-01-22T12:07:14.352Z,5.40
2018-01-22T12:09:52.424Z,5.40
2018-01-22T12:12:24.010Z,5.40
2018-01-22T12:14:54.813Z,5.40
2018-01-22T12:17:29.582Z,5.40
2018-01-22T12:19:58.122Z,5.40
2018-01-22T12:22:32.654Z,5.60
2018-01-22T12:25:01.876Z,5.50
2018-01-22T12:27:33.747Z,5.50
2018-01-22T12:30:04.274Z,5.40
2018-01-22T12:32:35.705Z,5.40
2018-01-22T12:35:06.289Z,5.30
2018-01-22T12:37:35.807Z,5.20
2018-01-22T12:40:04.106Z,5.20
2018-01-22T12:45:07.266Z,5.10
2018-01-22T12:47:35.450Z,5.10
2018-01-22T12:50:04.646Z,5.00
2018-01-22T12:52:32.920Z,5.00
2018-01-22T12:55:00.990Z,5.00
2018-01-22T12:57:29.293Z,5.00
2018-01-22T12:59:57.744Z,5.00
2018-01-22T13:02:28.156Z,5.00
2018-01-22T13:04:58.834Z,5.00
2018-01-22T13:07:26.597Z,5.00
2018-01-22T13:09:59.783Z,5.00
2018-01-22T13:12:27.958Z,5.10
2018-01-22T13:14:55.813Z,5.10
2018-01-22T13:17:23.895Z,5.10
2018-01-22T13:19:52.237Z,5.20
2018-01-22T13:22:20.427Z,5.20
2018-01-22T13:24:48.498Z,5.20
2018-01-22T13:27:17.117Z,5.20
2018-01-22T13:29:47.709Z,5.20
2018-01-22T13:32:15.568Z,5.20
2018-01-22T13:34:44.564Z,5.10
2018-01-22T13:37:14.634Z,5.10
2018-01-22T13:39:43.622Z,5.10
2018-01-22T13:42:14.827Z,5.00
2018-01-22T13:44:45.415Z,5.00
2018-01-22T13:47:14.583Z,4.90
2018-01-22T13:49:44.420Z,4.90
2018-01-22T13:52:13.248Z,4.90
2018-01-22T13:54:43.383Z,4.90
2018-01-22T13:57:11.845Z,4.90
2018-01-22T13:59:40.124Z,4.90
2018-01-22T14:02:09.081Z,4.90
2018-01-22T14:04:38.240Z,4.90
2018-01-22T14:07:08.230Z,4.90
2018-01-22T14:09:36.207Z,4.90
2018-01-22T14:12:04.089Z,5.00
2018-01-22T14:14:32.080Z,5.00
2018-01-22T14:17:00.918Z,5.00
2018-01-22T14:19:28.888Z,4.90
2018-01-22T14:21:56.778Z,5.00
2018-01-22T14:24:24.637Z,5.00
2018-01-22T14:26:52.613Z,4.90
2018-01-22T14:29:20.495Z,5.00
2018-01-22T14:31:49.241Z,5.00
2018-01-22T14:34:17.213Z,5.00
2018-01-22T14:36:45.272Z,5.00
2018-01-22T14:39:13.177Z,5.00
2018-01-22T14:41:41.018Z,5.00
2018-01-22T14:44:08.811Z,5.00
2018-01-22T15:08:58.459Z,5.30
2018-01-22T15:11:26.520Z,5.30
2018-01-22T15:13:54.427Z,5.30
2018-01-22T15:16:23.166Z,5.20
2018-01-22T15:18:51.531Z,5.20
2018-01-22T15:21:19.821Z,5.20
2018-01-22T15:23:47.622Z,5.30
2018-01-22T15:26:16.729Z,5.30
2018-01-22T15:28:45.465Z,5.30
2018-01-22T15:31:14.072Z,5.30
2018-01-22T15:33:42.328Z,5.30
2018-01-22T15:36:11.558Z,5.30
2018-01-22T15:38:40.089Z,5.30
2018-01-22T15:41:08.003Z,5.40
2018-01-22T15:43:35.939Z,5.40
2018-01-22T15:46:07.387Z,5.40
2018-01-22T15:48:36.238Z,5.40
2018-01-22T15:51:05.832Z,5.40
2018-01-22T15:53:33.852Z,5.40
2018-01-22T15:56:01.848Z,5.50
2018-01-22T15:58:29.722Z,5.60
2018-01-22T16:00:59.232Z,5.60
2018-01-22T16:03:27.982Z,5.60
2018-01-22T16:05:55.784Z,5.60
2018-01-22T16:08:24.129Z,5.70
2018-01-22T16:10:51.913Z,5.80
2018-01-22T16:13:27.147Z,5.80
2018-01-22T16:15:55.011Z,5.80
2018-01-22T16:18:23.919Z,5.80
2018-01-22T16:20:52.948Z,5.80
2018-01-22T16:23:20.915Z,5.90
2018-01-22T16:25:48.829Z,5.90
2018-01-22T16:28:19.162Z,5.80
2018-01-22T16:30:47.347Z,5.90
2018-01-22T16:33:16.128Z,5.90
2018-01-22T16:35:44.088Z,5.80
2018-01-22T16:38:12.149Z,5.90
2018-01-22T16:40:40.109Z,5.90
2018-01-22T16:43:08.073Z,5.90
2018-01-22T16:45:35.962Z,5.90
2018-01-22T16:48:04.047Z,6.00
2018-01-22T16:50:32.318Z,6.00
2018-01-22T16:53:00.400Z,6.10
2018-01-22T16:55:28.638Z,6.00
2018-01-22T16:57:56.605Z,5.90
2018-01-22T17:15:40.906Z,6.20
2018-01-22T17:18:09.806Z,6.10
2018-01-22T17:20:37.758Z,6.10
2018-01-22T17:23:05.629Z,6.20
2018-01-22T17:25:33.685Z,6.30
2018-01-22T17:28:19.136Z,6.40
2018-01-22T17:30:47.092Z,6.50
2018-01-22T17:33:15.142Z,6.60
2018-01-22T17:35:43.111Z,6.50
2018-01-22T17:38:10.977Z,6.40
2018-01-22T17:40:38.987Z,6.30
2018-01-22T17:43:07.027Z,6.40
2018-01-22T17:45:34.835Z,6.40
2018-01-22T17:48:03.675Z,6.40
2018-01-22T17:50:33.073Z,6.40
2018-01-22T17:53:01.968Z,6.50
2018-01-22T17:55:30.045Z,6.50
2018-01-22T17:57:57.930Z,6.50
2018-01-22T18:00:27.408Z,6.60
2018-01-22T18:02:56.708Z,6.70
2018-01-22T18:05:24.987Z,6.90
2018-01-22T18:07:53.170Z,7.00
2018-01-22T18:10:21.495Z,7.00
2018-01-22T18:12:50.340Z,7.00
2018-01-22T18:15:18.294Z,7.00
2018-01-22T18:17:46.179Z,6.90
2018-01-22T18:20:14.014Z,7.00
2018-01-22T18:22:42.113Z,7.00
2018-01-22T18:25:09.993Z,7.00
2018-01-22T18:27:37.958Z,7.00
2018-01-22T18:30:05.851Z,6.90
2018-01-22T18:32:34.403Z,7.00
2018-01-22T18:35:03.376Z,6.90
2018-01-22T18:37:31.241Z,6.90
2018-01-22T18:39:59.136Z,6.90
2018-01-22T18:42:27.165Z,6.90
2018-01-22T18:44:55.686Z,6.90
2018-01-22T18:47:24.960Z,6.90
2018-01-22T18:49:55.250Z,6.90
2018-01-22T18:52:24.392Z,6.80
2018-01-22T18:54:53.171Z,6.70
2018-01-22T18:57:21.140Z,6.80
2018-01-22T18:59:49.360Z,6.80
2018-01-22T19:02:18.204Z,6.80
2018-01-22T19:04:46.170Z,6.80
2018-01-22T19:07:14.358Z,7.00
2018-01-22T19:09:43.382Z,7.20
2018-01-22T19:12:12.131Z,7.20
2018-01-22T19:14:40.244Z,7.20
2018-01-22T19:17:09.586Z,7.20
2018-01-22T19:19:37.633Z,7.20
2018-01-22T19:22:05.650Z,7.10
2018-01-22T19:24:33.709Z,7.10
2018-01-22T19:27:01.985Z,7.10
2018-01-22T19:29:30.162Z,7.10
2018-01-22T19:31:58.416Z,7.00
2018-01-22T19:34:26.788Z,7.10
2018-01-22T19:36:55.211Z,7.10
2018-01-22T19:39:23.515Z,7.10
2018-01-22T19:41:52.501Z,7.10
2018-01-22T19:44:21.382Z,7.00
2018-01-22T19:46:50.758Z,7.00
2018-01-22T19:49:18.951Z,7.00
2018-01-22T19:51:47.427Z,7.00
2018-01-22T19:54:15.546Z,7.00
2018-01-22T19:56:43.862Z,7.00
2018-01-22T19:59:13.678Z,7.00
2018-01-22T20:01:41.930Z,6.90
2018-01-22T20:04:11.109Z,6.90
2018-01-22T20:06:39.347Z,6.90
2018-01-22T20:09:08.780Z,6.90
2018-01-22T20:11:39.018Z,6.90
2018-01-22T20:14:07.155Z,6.90
2018-01-22T20:16:36.339Z,6.90
2018-01-22T20:19:05.393Z,6.90
2018-01-22T20:21:33.385Z,6.80
2018-01-22T20:24:01.769Z,6.80
2018-01-22T20:26:30.117Z,6.80
2018-01-22T20:28:58.208Z,6.70
2018-01-22T20:31:26.412Z,6.70
2018-01-22T20:33:55.050Z,6.70
2018-01-22T20:36:24.496Z,6.70
2018-01-22T20:38:53.259Z,6.60
2018-01-22T20:41:21.568Z,6.60
2018-01-22T20:43:50.349Z,6.70
2018-01-22T20:46:18.681Z,6.70
2018-01-22T20:48:46.769Z,6.70
2018-01-22T20:51:14.798Z,6.70
2018-01-22T20:53:44.100Z,6.60
2018-01-22T20:56:12.426Z,6.70
2018-01-22T20:58:40.422Z,6.70
2018-01-22T21:01:08.558Z,6.70
2018-01-22T21:03:36.763Z,6.70
2018-01-22T21:06:05.069Z,6.60
2018-01-22T21:08:33.617Z,6.60
2018-01-22T21:11:03.021Z,6.50
2018-01-22T21:13:31.226Z,6.50
2018-01-22T21:16:00.373Z,6.50
2018-01-22T21:18:29.256Z,6.50
2018-01-22T21:20:58.279Z,6.50
2018-01-22T21:23:26.701Z,6.50
2018-01-22T21:25:54.838Z,6.50
2018-01-22T21:28:24.777Z,6.50
2018-01-22T21:30:52.911Z,6.50
2018-01-22T21:33:22.575Z,6.50
2018-01-22T21:35:53.929Z,6.50
2018-01-22T21:38:22.168Z,6.50
2018-01-22T21:40:51.216Z,6.50
2018-01-22T21:43:19.494Z,6.50
2018-01-22T21:45:47.529Z,6.50
2018-01-22T21:48:19.905Z,6.60
2018-01-22T21:50:48.159Z,6.60
2018-01-22T21:53:17.793Z,6.50
2018-01-22T21:55:46.211Z,6.50
2018-01-22T21:58:14.514Z,6.50
2018-01-22T22:00:43.741Z,6.50
2018-01-22T22:03:17.112Z,6.50
2018-01-22T22:05:46.927Z,6.50
2018-01-22T22:08:20.536Z,6.50
2018-01-22T22:10:49.903Z,6.40
2018-01-22T22:13:22.104Z,6.40
2018-01-22T22:15:57.780Z,6.40
2018-01-22T22:18:26.484Z,6.40
2018-01-22T22:20:56.118Z,6.40
2018-01-22T22:23:29.416Z,6.50
2018-01-22T22:25:58.971Z,6.50
2018-01-22T22:28:28.160Z,6.50
2018-01-22T22:30:56.675Z,6.40
2018-01-22T22:33:28.032Z,6.50
2018-01-22T22:35:57.907Z,6.40
2018-01-22T22:38:26.228Z,6.40
2018-01-22T22:40:54.543Z,6.40
2018-01-22T22:43:28.187Z,6.40
2018-01-22T22:45:56.493Z,6.40
2018-01-22T22:48:26.178Z,6.50
2018-01-22T22:50:54.574Z,6.50
2018-01-22T22:53:24.345Z,6.50
2018-01-22T22:55:52.564Z,6.50
2018-01-22T22:58:20.818Z,6.50
2018-01-22T23:00:53.236Z,6.40
2018-01-22T23:03:22.181Z,6.40
2018-01-22T23:05:51.332Z,6.40
2018-01-22T23:08:19.764Z,6.40
2018-01-22T23:10:48.758Z,6.40
2018-01-22T23:13:16.824Z,6.40
2018-01-22T23:15:46.818Z,6.30
2018-01-22T23:18:16.368Z,6.30
2018-01-22T23:20:45.782Z,6.30
2018-01-22T23:23:15.681Z,6.20
2018-01-22T23:25:44.655Z,6.20
2018-01-22T23:28:12.828Z,6.20
2018-01-22T23:30:41.058Z,6.20
2018-01-22T23:33:10.983Z,6.20
2018-01-22T23:35:39.363Z,6.20
2018-01-22T23:38:07.483Z,6.20
2018-01-22T23:40:35.939Z,6.20
2018-01-22T23:43:05.107Z,6.30
2018-01-22T23:45:35.705Z,6.30
2018-01-22T23:48:07.198Z,6.30
2018-01-22T23:50:35.476Z,6.30
2018-01-22T23:53:08.104Z,6.30
2018-01-22T23:55:39.028Z,6.30
2018-01-22T23:58:07.168Z,6.20
